Time;durP1;ratioP1;P1;durP2;ratioP2;P2;SDS_P1;SDS_P2;PMS_P1;PMS_P2;Temp;Humidity;BMP_temperature;BMP_pressure;BME280_temperature;BME280_humidity;BME280_pressure;Samples;Min_cycle;Max_cycle;Signal;HPM_P1;HPM_P2
2022/12/07 00:01:29;;;;;;;20.33;9.40;;;;;;;2.67;100.00;101736.72;5069355;28;20070;-69
2022/12/07 00:04:00;;;;;;;;;;;;;;;2.67;100.00;101743.78;5069817;28;20032;-70
2022/12/07 00:06:26;;;;;;;19.90;8.80;;;;;;;2.63;100.00;101733.50;5069316;28;19908;-70
2022/12/07 00:08:51;;;;;;;15.75;7.88;;;;;;;2.57;100.00;101741.06;5069104;28;20079;-70
2022/12/07 00:11:20;;;;;;;17.48;9.75;;;;;;;2.53;100.00;101742.25;5069323;28;20137;-70
2022/12/07 00:13:47;;;;;;;20.20;8.15;;;;;;;2.49;100.00;101740.81;5049702;28;20025;-70
2022/12/07 00:16:18;;;;;;;18.42;9.07;;;;;;;2.45;100.00;101729.69;5068367;28;20035;-70
2022/12/07 00:18:44;;;;;;;18.08;8.43;;;;;;;2.42;100.00;101732.59;5069303;28;20029;-70
2022/12/07 00:21:13;;;;;;;20.35;10.00;;;;;;;2.41;100.00;101734.38;5068970;28;20162;-70
2022/12/07 00:23:40;;;;;;;19.23;10.50;;;;;;;2.40;100.00;101731.88;5068925;28;20021;-69
2022/12/07 00:26:08;;;;;;;20.60;10.13;;;;;;;2.38;100.00;101734.63;5068854;28;20037;-70
2022/12/07 00:28:33;;;;;;;18.15;9.63;;;;;;;2.37;100.00;101722.41;5072866;28;20056;-70
2022/12/07 00:31:00;;;;;;;20.10;10.07;;;;;;;2.37;100.00;101713.69;5073086;28;20181;-70
2022/12/07 00:33:28;;;;;;;16.63;8.70;;;;;;;2.44;100.00;101721.91;5071639;28;20131;-70
2022/12/07 00:35:58;;;;;;;19.52;10.63;;;;;;;2.42;100.00;101722.88;5073040;28;20028;-70
2022/12/07 00:38:24;;;;;;;20.10;9.52;;;;;;;2.42;100.00;101703.63;5072421;28;20380;-70
2022/12/07 00:40:57;;;;;;;17.13;9.50;;;;;;;2.40;100.00;101706.38;5072884;28;20028;-70
2022/12/07 00:43:22;;;;;;;19.15;10.73;;;;;;;2.34;100.00;101709.50;5072849;28;20017;-70
2022/12/07 00:45:48;;;;;;;19.52;9.88;;;;;;;2.41;100.00;101718.59;5072724;28;20498;-70
2022/12/07 00:48:13;;;;;;;19.30;9.40;;;;;;;2.44;100.00;101722.78;5072744;28;20404;-68
2022/12/07 00:50:38;;;;;;;18.30;10.23;;;;;;;2.40;100.00;101719.53;5072656;28;20048;-68
2022/12/07 00:53:04;;;;;;;21.05;9.63;;;;;;;2.41;100.00;101717.72;5072603;28;20027;-68
2022/12/07 00:55:35;;;;;;;18.58;9.88;;;;;;;2.37;100.00;101716.31;5072653;28;20067;-68
2022/12/07 00:58:00;;;;;;;18.67;10.07;;;;;;;2.37;100.00;101717.16;5072626;28;20055;-68
2022/12/07 01:00:25;;;;;;;19.23;10.18;;;;;;;2.39;100.00;101720.50;5072453;28;20487;-68
2022/12/07 01:02:52;;;;;;;20.80;10.27;;;;;;;2.39;100.00;101714.41;5072529;28;20598;-68
2022/12/07 01:05:17;;;;;;;16.80;9.68;;;;;;;2.34;100.00;101692.88;5072508;28;20054;-68
2022/12/07 01:07:43;;;;;;;18.90;9.23;;;;;;;2.42;100.00;101712.34;5072613;28;20032;-68
2022/12/07 01:10:09;;;;;;;21.38;10.65;;;;;;;2.43;100.00;101700.03;5072149;28;20032;-68
2022/12/07 01:12:34;;;;;;;18.45;9.68;;;;;;;2.47;100.00;101709.38;5072191;28;20395;-68
2022/12/07 01:14:59;;;;;;;19.15;9.07;;;;;;;2.44;100.00;101701.72;5072035;28;20375;-68
2022/12/07 01:17:25;;;;;;;17.73;9.43;;;;;;;2.53;100.00;101708.84;5072052;28;20064;-68
2022/12/07 01:19:50;;;;;;;18.60;10.18;;;;;;;2.57;100.00;101710.31;5071653;28;20117;-68
2022/12/07 01:22:15;;;;;;;21.20;10.57;;;;;;;2.55;100.00;101711.38;5070476;28;20056;-68
2022/12/07 01:24:41;;;;;;;19.52;8.70;;;;;;;2.51;100.00;101716.03;5072107;28;20025;-68
2022/12/07 01:27:06;;;;;;;18.73;10.57;;;;;;;2.43;100.00;101700.03;5071933;28;20438;-68
2022/12/07 01:29:31;;;;;;;19.63;9.40;;;;;;;2.49;100.00;101715.34;5071847;28;20051;-68
2022/12/07 01:31:57;;;;;;;17.85;8.68;;;;;;;2.48;100.00;101718.91;5071817;28;20064;-68
2022/12/07 01:34:22;;;;;;;16.92;8.85;;;;;;;2.48;100.00;101723.34;5071831;28;20021;-68
2022/12/07 01:36:47;;;;;;;16.70;8.75;;;;;;;2.40;100.00;101702.91;5072099;28;20032;-68
2022/12/07 01:39:13;;;;;;;18.48;8.05;;;;;;;2.40;100.00;101718.69;5069967;28;20048;-68
2022/12/07 01:41:43;;;;;;;17.77;8.93;;;;;;;2.41;100.00;101715.09;5071311;28;20077;-68
2022/12/07 01:44:20;;;;;;;18.35;8.75;;;;;;;2.39;100.00;101717.03;5071644;28;20082;-68
2022/12/07 01:46:51;;;;;;;21.00;9.32;;;;;;;2.37;100.00;101717.16;5071808;28;20024;-68
2022/12/07 01:49:35;;;;;;;20.85;11.02;;;;;;;2.37;100.00;101719.78;5071784;28;20030;-68
2022/12/07 01:52:10;;;;;;;17.73;8.32;;;;;;;2.29;100.00;101708.19;5071608;28;20024;-68
2022/12/07 01:54:36;;;;;;;19.85;10.60;;;;;;;2.34;100.00;101711.28;5071380;28;20031;-69
2022/12/07 01:57:02;;;;;;;18.33;10.40;;;;;;;2.35;100.00;101705.91;5067816;28;20029;-68
2022/12/07 01:59:28;;;;;;;28.92;12.00;;;;;;;2.41;100.00;101707.19;5052299;28;20035;-68
2022/12/07 02:01:55;;;;;;;17.02;8.75;;;;;;;2.43;100.00;101710.56;5052259;28;20112;-68
2022/12/07 02:04:22;;;;;;;19.85;8.05;;;;;;;2.47;100.00;101713.78;5052297;28;20035;-68
2022/12/07 02:06:48;;;;;;;18.83;8.68;;;;;;;2.47;100.00;101716.44;5052203;28;20365;-68
2022/12/07 02:09:14;;;;;;;19.17;10.30;;;;;;;2.47;100.00;101711.16;5052050;28;20051;-68
2022/12/07 02:11:40;;;;;;;19.58;9.20;;;;;;;2.45;100.00;101710.44;5050582;28;20225;-68
2022/12/07 02:14:05;;;;;;;18.75;8.10;;;;;;;2.45;100.00;101708.63;5071121;28;20067;-68
2022/12/07 02:16:49;;;;;;;18.45;8.70;;;;;;;2.45;100.00;101702.53;5071209;28;20131;-68
2022/12/07 02:19:36;;;;;;;16.45;8.52;;;;;;;2.41;100.00;101708.06;5071065;28;20117;-68
2022/12/07 02:22:45;;;;;;;18.10;7.90;;;;;;;2.38;100.00;101696.91;5066309;28;20052;-68
2022/12/07 02:25:48;;;;;;;16.52;7.25;;;;;;;2.34;100.00;101701.59;5042535;28;20037;-68
2022/12/07 02:28:33;;;;;;;14.90;7.90;;;;;;;2.26;100.00;101701.38;5050222;28;20079;-68
2022/12/07 02:31:07;;;;;;;16.75;7.65;;;;;;;2.28;100.00;101704.72;5051668;28;20024;-68
2022/12/07 02:33:40;;;;;;;13.65;7.07;;;;;;;2.22;100.00;101704.38;5051581;28;20025;-68
2022/12/07 02:36:10;;;;;;;16.08;7.75;;;;;;;2.25;100.00;101712.00;5051652;28;20029;-68
2022/12/07 02:38:51;;;;;;;20.10;9.48;;;;;;;2.23;100.00;101708.66;5051247;28;20468;-68
2022/12/07 02:41:30;;;;;;;19.77;8.82;;;;;;;2.23;100.00;101698.13;5051172;28;20106;-68
2022/12/07 02:43:58;;;;;;;17.80;8.23;;;;;;;2.23;100.00;101699.00;5051033;28;20562;-68
2022/12/07 02:46:32;;;;;;;21.10;10.45;;;;;;;2.23;100.00;101706.88;5051473;28;20388;-68
2022/12/07 02:48:59;;;;;;;14.43;7.35;;;;;;;2.14;100.00;101692.63;5051270;28;20040;-68
2022/12/07 02:51:25;;;;;;;17.80;8.07;;;;;;;2.09;100.00;101686.06;5050639;28;20222;-68
2022/12/07 02:53:50;;;;;;;15.32;7.90;;;;;;;2.05;100.00;101700.44;5051168;28;20071;-68
2022/12/07 02:56:46;;;;;;;18.27;8.73;;;;;;;2.05;100.00;101696.00;5051247;28;20075;-68
2022/12/07 02:59:59;;;;;;;14.73;6.90;;;;;;;1.99;100.00;101699.09;5051081;28;20036;-68
2022/12/07 03:02:38;;;;;;;16.88;8.57;;;;;;;1.93;100.00;101707.47;5008481;28;21104;-68
2022/12/07 03:05:12;;;;;;;18.23;7.65;;;;;;;1.92;100.00;101708.44;5008532;28;20587;-68
2022/12/07 03:07:56;;;;;;;13.13;7.85;;;;;;;1.91;100.00;101706.75;5034140;28;20613;-68
2022/12/07 03:10:39;;;;;;;18.65;7.97;;;;;;;1.94;100.00;101702.13;5051057;28;20131;-68
2022/12/07 03:13:13;;;;;;;16.40;8.15;;;;;;;2.02;100.00;101704.16;5050840;28;20021;-68
2022/12/07 03:16:05;;;;;;;16.52;8.43;;;;;;;2.09;100.00;101713.22;5050855;28;20094;-68
2022/12/07 03:18:44;;;;;;;16.88;8.60;;;;;;;2.12;100.00;101702.47;5046052;28;20045;-68
2022/12/07 03:21:13;;;;;;;19.48;9.57;;;;;;;2.20;100.00;101704.47;5050631;28;20053;-68
2022/12/07 03:23:41;;;;;;;17.13;7.80;;;;;;;2.24;100.00;101702.44;5050804;28;20017;-68
2022/12/07 03:26:11;;;;;;;16.48;8.50;;;;;;;2.30;100.00;101707.22;5050746;28;20033;-68
2022/12/07 03:28:42;;;;;;;14.02;7.40;;;;;;;2.33;100.00;101705.19;5052563;28;20028;-68
2022/12/07 03:31:17;;;;;;;20.48;8.95;;;;;;;2.32;100.00;101703.50;5069812;28;20077;-68
2022/12/07 03:34:22;;;;;;;16.73;8.93;;;;;;;2.35;100.00;101707.69;5069518;28;20025;-68
2022/12/07 03:37:00;;;;;;;16.48;7.40;;;;;;;2.35;100.00;101705.06;5050503;28;20057;-68
2022/12/07 03:40:01;;;;;;;16.77;7.90;;;;;;;2.32;100.00;101700.88;5050440;28;20386;-68
2022/12/07 03:42:26;;;;;;;15.07;8.02;;;;;;;2.38;100.00;101694.28;5043154;28;20045;-68
2022/12/07 03:44:52;;;;;;;17.05;6.93;;;;;;;2.41;100.00;101694.91;5049737;28;20973;-68
2022/12/07 03:47:32;;;;;;;15.73;9.10;;;;;;;2.46;100.00;101683.97;5059619;28;20064;-68
2022/12/07 03:50:05;;;;;;;15.48;7.47;;;;;;;2.50;100.00;101688.03;5068710;28;20029;-68
2022/12/07 03:52:44;;;;;;;16.75;8.55;;;;;;;2.55;100.00;101683.25;5068084;28;20078;-68
2022/12/07 03:55:27;;;;;;;12.85;6.40;;;;;;;2.59;100.00;101689.94;5069330;28;20029;-68
2022/12/07 03:57:58;;;;;;;15.07;7.28;;;;;;;2.64;100.00;101677.22;5069628;28;20037;-68
2022/12/07 04:00:24;;;;;;;16.23;6.88;;;;;;;2.67;100.00;101683.22;5069421;28;20499;-68
2022/12/07 04:02:52;;;;;;;14.75;7.00;;;;;;;2.70;100.00;101688.22;5068233;28;20066;-68
2022/12/07 04:05:18;;;;;;;13.25;6.57;;;;;;;2.67;100.00;101685.84;5069254;28;20036;-68
2022/12/07 04:07:44;;;;;;;15.35;6.70;;;;;;;2.72;100.00;101684.50;5069304;28;20356;-68
2022/12/07 04:10:09;;;;;;;14.20;6.25;;;;;;;2.71;100.00;101685.47;5069285;28;20032;-68
2022/12/07 04:12:35;;;;;;;13.20;7.55;;;;;;;2.72;100.00;101679.22;5069193;28;20028;-68
2022/12/07 04:15:00;;;;;;;20.02;8.25;;;;;;;2.68;100.00;101679.63;5069150;28;20025;-68
2022/12/07 04:17:25;;;;;;;13.93;6.53;;;;;;;2.78;100.00;101691.09;5069131;28;20107;-68
2022/12/07 04:19:51;;;;;;;15.68;7.82;;;;;;;2.78;100.00;101699.00;5069099;28;20128;-68
2022/12/07 04:22:16;;;;;;;14.40;6.97;;;;;;;2.74;100.00;101690.50;5068953;28;20671;-68
2022/12/07 04:24:41;;;;;;;14.13;5.68;;;;;;;2.71;100.00;101690.75;5069012;28;20076;-68
2022/12/07 04:27:07;;;;;;;10.13;5.43;;;;;;;2.69;100.00;101687.38;5068885;28;20021;-68
2022/12/07 04:29:32;;;;;;;10.95;5.40;;;;;;;2.68;100.00;101687.53;5068880;28;20035;-68
2022/12/07 04:31:57;;;;;;;14.73;6.03;;;;;;;2.68;100.00;101691.00;5069108;28;20039;-68
2022/12/07 04:34:23;;;;;;;13.30;5.82;;;;;;;2.69;100.00;101692.66;5068859;28;20033;-68
2022/12/07 04:36:48;;;;;;;14.32;6.90;;;;;;;2.70;100.00;101685.59;5069000;28;20029;-68
2022/12/07 04:39:40;;;;;;;14.43;6.60;;;;;;;2.72;100.00;101687.13;5067975;28;20063;-68
2022/12/07 04:42:06;;;;;;;;;;;;;;;2.75;100.00;101683.41;5067279;28;20476;-68
2022/12/07 04:44:31;;;;;;;10.38;6.03;;;;;;;2.74;100.00;101684.38;5068685;28;19926;-68
2022/12/07 04:46:57;;;;;;;14.60;5.60;;;;;;;2.75;100.00;101680.78;5068079;28;20024;-68
2022/12/07 04:49:23;;;;;;;14.13;5.43;;;;;;;2.73;100.00;101680.09;5069008;28;20025;-68
2022/12/07 04:51:48;;;;;;;11.35;6.03;;;;;;;2.73;100.00;101674.81;5068035;28;20135;-68
2022/12/07 04:54:15;;;;;;;13.68;6.95;;;;;;;2.67;100.00;101672.66;5068511;28;20119;-68
2022/12/07 04:56:41;;;;;;;11.48;5.30;;;;;;;2.63;100.00;101670.28;5068640;28;20025;-68
2022/12/07 04:59:07;;;;;;;11.48;6.07;;;;;;;2.57;100.00;101669.97;5068579;28;20115;-68
2022/12/07 05:01:32;;;;;;;10.05;5.13;;;;;;;2.49;100.00;101670.59;5068626;28;20031;-68
2022/12/07 05:03:58;;;;;;;12.13;5.50;;;;;;;2.42;100.00;101672.03;5068793;28;20060;-68
2022/12/07 05:06:24;;;;;;;11.32;5.63;;;;;;;2.34;100.00;101671.81;5068540;28;20464;-68
2022/12/07 05:08:49;;;;;;;16.27;6.60;;;;;;;2.24;100.00;101669.06;5068396;28;20387;-68
2022/12/07 05:14:00;;;;;;;14.60;7.13;;;;;;;2.10;100.00;101667.53;5071335;28;20039;-68
2022/12/07 05:16:25;;;;;;;18.00;7.70;;;;;;;2.05;100.00;101669.69;5072262;28;20033;-68
2022/12/07 05:18:50;;;;;;;12.65;5.95;;;;;;;2.06;100.00;101670.53;5072087;28;20062;-68
2022/12/07 05:21:16;;;;;;;13.20;6.05;;;;;;;2.06;100.00;101671.38;5071991;28;20061;-68
2022/12/07 05:23:41;;;;;;;10.63;4.88;;;;;;;2.08;100.00;101672.09;5071889;28;20390;-68
2022/12/07 05:26:06;;;;;;;9.90;4.78;;;;;;;2.10;100.00;101680.69;5072109;28;20028;-68
2022/12/07 05:28:32;;;;;;;11.52;5.68;;;;;;;2.09;100.00;101667.66;5072101;28;20036;-68
2022/12/07 05:30:57;;;;;;;11.93;4.78;;;;;;;2.09;100.00;101670.28;5071891;28;20357;-68
2022/12/07 05:33:22;;;;;;;9.95;4.45;;;;;;;2.06;100.00;101670.53;5071977;28;20047;-68
2022/12/07 05:35:48;;;;;;;10.80;4.20;;;;;;;1.99;100.00;101670.16;5071853;28;20028;-68
2022/12/07 05:38:13;;;;;;;11.32;5.07;;;;;;;1.97;100.00;101675.56;5071574;28;20052;-68
2022/12/07 05:40:38;;;;;;;11.23;5.10;;;;;;;1.97;100.00;101675.56;5071317;28;20043;-68
2022/12/07 05:43:04;;;;;;;11.00;4.97;;;;;;;2.01;100.00;101684.03;5071688;28;20050;-68
2022/12/07 05:45:29;;;;;;;9.60;4.40;;;;;;;2.01;100.00;101672.69;5071733;28;20025;-68
2022/12/07 05:47:54;;;;;;;9.55;4.53;;;;;;;2.02;100.00;101674.34;5070971;28;20127;-68
2022/12/07 05:50:20;;;;;;;8.23;4.43;;;;;;;1.98;100.00;101669.31;5071590;28;20036;-68
2022/12/07 05:52:45;;;;;;;9.95;5.03;;;;;;;1.96;100.00;101670.41;5071613;28;20026;-68
2022/12/07 05:55:10;;;;;;;9.57;4.97;;;;;;;1.93;100.00;101663.59;5071345;28;20033;-68
2022/12/07 05:57:36;;;;;;;11.77;5.15;;;;;;;1.88;100.00;101655.22;5071504;28;20028;-68
2022/12/07 06:00:03;;;;;;;6.63;4.18;;;;;;;1.82;100.00;101655.72;5071324;28;20535;-68
2022/12/07 06:02:29;;;;;;;13.93;5.80;;;;;;;1.82;100.00;101654.88;5071235;28;20081;-68
2022/12/07 06:04:54;;;;;;;17.17;5.22;;;;;;;1.79;100.00;101649.88;5071560;28;20024;-68
2022/12/07 06:07:19;;;;;;;11.73;4.85;;;;;;;1.75;100.00;101651.88;5071291;28;20024;-68
2022/12/07 06:09:45;;;;;;;12.43;4.97;;;;;;;1.72;100.00;101654.75;5071247;28;20037;-68
2022/12/07 06:14:56;;;;;;;12.95;4.97;;;;;;;1.70;100.00;101654.03;5070810;28;20047;-68
2022/12/07 06:17:22;;;;;;;10.48;5.05;;;;;;;1.68;100.00;101656.78;5071260;28;20037;-68
2022/12/07 06:19:47;;;;;;;11.57;5.13;;;;;;;1.68;100.00;101666.47;5071056;28;20043;-68
2022/12/07 06:22:13;;;;;;;10.80;5.00;;;;;;;1.66;100.00;101658.69;5069589;28;20522;-68
2022/12/07 06:24:39;;;;;;;12.38;4.55;;;;;;;1.63;100.00;101664.19;5070006;28;20399;-67
2022/12/07 06:27:06;;;;;;;20.67;5.20;;;;;;;1.60;100.00;101664.44;5071010;28;20051;-71
2022/12/07 06:29:31;;;;;;;10.98;5.82;;;;;;;1.58;100.00;101666.34;5070864;28;20028;-70
2022/12/07 06:31:56;;;;;;;12.90;5.57;;;;;;;1.51;100.00;101660.72;5070308;28;20028;-70
2022/12/07 06:34:23;;;;;;;13.13;5.50;;;;;;;1.51;100.00;101663.34;5070753;28;20030;-70
2022/12/07 06:36:51;;;;;;;14.75;6.78;;;;;;;1.51;100.00;101659.88;5070781;28;20036;-70
2022/12/07 06:39:21;;;;;;;10.35;4.93;;;;;;;1.55;100.00;101679.72;5070762;28;20083;-69
2022/12/07 06:41:47;;;;;;;13.75;5.47;;;;;;;1.54;100.00;101665.72;5070767;28;20170;-70
2022/12/07 06:44:12;;;;;;;14.43;5.65;;;;;;;1.60;100.00;101674.97;5066641;28;21020;-70
2022/12/07 06:46:37;;;;;;;10.23;5.03;;;;;;;1.58;100.00;101673.41;5051455;28;20039;-70
2022/12/07 06:49:04;;;;;;;10.90;5.43;;;;;;;1.54;100.00;101678.88;5051108;28;20021;-70
2022/12/07 06:51:31;;;;;;;10.43;5.20;;;;;;;1.53;100.00;101674.56;5051330;28;20033;-70
2022/12/07 06:53:56;;;;;;;15.18;5.10;;;;;;;1.54;100.00;101680.66;5051282;28;20028;-70
2022/12/07 06:56:22;;;;;;;16.10;6.63;;;;;;;1.57;100.00;101675.16;5051080;28;20032;-70
2022/12/07 06:58:48;;;;;;;10.50;5.30;;;;;;;1.63;100.00;101673.88;5051240;28;20035;-70
2022/12/07 07:01:17;;;;;;;24.80;8.32;;;;;;;1.66;100.00;101676.28;5051039;28;20131;-70
2022/12/07 07:03:44;;;;;;;18.20;7.15;;;;;;;1.63;100.00;101671.25;5049706;28;20037;-70
2022/12/07 07:06:09;;;;;;;18.85;8.57;;;;;;;1.62;100.00;101678.28;5051081;28;20369;-70
2022/12/07 07:08:36;;;;;;;20.25;10.50;;;;;;;1.61;100.00;101670.53;5050962;28;20093;-71
2022/12/07 07:11:01;;;;;;;22.95;10.55;;;;;;;1.61;100.00;101667.91;5050969;28;20423;-71
2022/12/07 07:13:27;;;;;;;20.52;8.10;;;;;;;1.59;100.00;101670.63;5050865;28;20036;-70
2022/12/07 07:15:53;;;;;;;22.13;9.93;;;;;;;1.65;100.00;101672.81;5050916;28;20468;-70
2022/12/07 07:18:18;;;;;;;16.77;6.35;;;;;;;1.68;100.00;101671.75;5050690;28;20036;-72
2022/12/07 07:20:44;;;;;;;15.55;7.63;;;;;;;1.71;100.00;101667.06;5049092;28;20033;-72
2022/12/07 07:23:09;;;;;;;15.60;7.50;;;;;;;1.71;100.00;101668.88;5050705;28;20060;-72
2022/12/07 07:25:35;;;;;;;15.18;7.43;;;;;;;1.75;100.00;101678.19;5050733;28;20029;-71
2022/12/07 07:28:00;;;;;;;17.80;8.20;;;;;;;1.80;100.00;101672.56;5062871;28;20132;-69
2022/12/07 07:30:26;;;;;;;21.85;8.88;;;;;;;1.84;100.00;101677.47;5067777;28;20032;-67
2022/12/07 07:32:56;;;;;;;17.73;7.43;;;;;;;1.90;100.00;101677.00;5068415;28;20047;-69
2022/12/07 07:35:22;;;;;;;13.77;7.38;;;;;;;1.90;100.00;101671.72;5049555;28;20033;-69
2022/12/07 07:37:47;;;;;;;14.63;7.22;;;;;;;1.90;100.00;101677.00;5050267;28;20342;-69
2022/12/07 07:40:12;;;;;;;12.35;6.15;;;;;;;1.88;100.00;101678.06;5050376;28;20032;-69
2022/12/07 07:42:38;;;;;;;15.32;8.25;;;;;;;1.83;100.00;101670.53;5050406;28;20032;-69
2022/12/07 07:45:04;;;;;;;20.33;8.15;;;;;;;1.81;100.00;101680.34;5050420;28;20025;-69
2022/12/07 07:47:29;;;;;;;22.70;8.45;;;;;;;1.78;100.00;101680.56;5050335;28;20123;-69
2022/12/07 07:49:55;;;;;;;18.17;7.60;;;;;;;1.74;100.00;101679.13;5050331;28;20615;-68
2022/12/07 07:52:20;;;;;;;13.90;6.97;;;;;;;1.73;100.00;101677.47;5050129;28;20033;-70
2022/12/07 07:54:45;;;;;;;17.08;8.95;;;;;;;1.74;100.00;101687.03;5048833;28;20043;-69
2022/12/07 07:57:11;;;;;;;12.70;7.13;;;;;;;1.74;100.00;101684.41;5051379;28;20038;-72
2022/12/07 07:59:36;;;;;;;16.23;7.07;;;;;;;1.71;100.00;101677.59;5053387;28;20120;-69
2022/12/07 08:02:01;;;;;;;17.52;7.60;;;;;;;1.69;100.00;101671.59;5068939;28;20036;-69
2022/12/07 08:04:27;;;;;;;11.88;6.43;;;;;;;1.85;100.00;101679.13;5069414;28;20027;-69
2022/12/07 08:06:52;;;;;;;17.15;7.47;;;;;;;1.93;100.00;101681.19;5069210;28;20036;-69
2022/12/07 08:09:17;;;;;;;16.83;7.53;;;;;;;1.96;100.00;101675.66;5056918;28;20033;-69
2022/12/07 08:11:43;;;;;;;19.05;8.45;;;;;;;2.01;100.00;101675.31;5049851;28;20017;-68
2022/12/07 08:14:10;;;;;;;18.85;8.10;;;;;;;2.07;100.00;101670.41;5049720;28;20043;-69
2022/12/07 08:16:36;;;;;;;17.83;6.85;;;;;;;2.20;100.00;101678.16;5050081;28;20036;-70
2022/12/07 08:19:01;;;;;;;18.23;8.15;;;;;;;2.26;100.00;101676.84;5049834;28;20394;-70
2022/12/07 08:21:26;;;;;;;18.42;7.40;;;;;;;2.40;100.00;101687.94;5049679;28;20099;-69
2022/12/07 08:23:52;;;;;;;18.60;8.00;;;;;;;2.45;100.00;101689.38;5049888;28;20025;-70
2022/12/07 08:26:17;;;;;;;17.33;7.13;;;;;;;2.50;100.00;101690.69;5049831;28;20033;-69
2022/12/07 08:28:43;;;;;;;16.92;7.22;;;;;;;2.55;100.00;101690.31;5049893;28;20143;-70
2022/12/07 08:31:12;;;;;;;14.40;8.18;;;;;;;2.61;100.00;101685.38;5049826;28;20063;-70
2022/12/07 08:33:38;;;;;;;12.05;6.80;;;;;;;2.64;100.00;101686.94;5049674;28;20119;-68
2022/12/07 08:36:11;;;;;;;17.95;6.63;;;;;;;2.63;100.00;101696.63;5049508;28;20120;-70
2022/12/07 08:38:38;;;;;;;14.55;7.50;;;;;;;2.64;100.00;101702.72;5049613;28;20369;-68
2022/12/07 08:41:04;;;;;;;14.85;7.72;;;;;;;2.66;100.00;101705.25;5049676;28;20025;-69
2022/12/07 08:43:30;;;;;;;16.52;8.02;;;;;;;2.73;100.00;101699.38;5049635;28;20039;-70
2022/12/07 08:46:17;;;;;;;13.50;6.22;;;;;;;2.83;100.00;101704.72;5049219;28;20024;-69
2022/12/07 08:49:06;;;;;;;15.05;7.53;;;;;;;2.91;100.00;101696.16;5051560;28;20044;-69
2022/12/07 08:51:32;;;;;;;12.25;6.53;;;;;;;2.98;100.00;101695.53;5053006;28;20079;-69
2022/12/07 08:54:00;;;;;;;15.30;7.97;;;;;;;3.00;100.00;101693.63;5053370;28;20082;-68
2022/12/07 08:56:26;;;;;;;12.85;6.50;;;;;;;3.05;100.00;101702.00;5053515;28;20090;-69
2022/12/07 08:58:52;;;;;;;13.73;7.55;;;;;;;3.09;100.00;101707.84;5053269;28;20155;-70
2022/12/07 09:01:17;;;;;;;12.55;6.45;;;;;;;3.07;100.00;101700.06;5053475;28;20120;-69
2022/12/07 09:03:43;;;;;;;12.48;5.78;;;;;;;3.08;100.00;101698.25;5053198;28;20926;-69
2022/12/07 09:06:08;;;;;;;17.80;5.82;;;;;;;3.10;100.00;101693.72;5051661;28;20033;-70
2022/12/07 09:08:39;;;;;;;13.38;6.10;;;;;;;3.20;100.00;101684.06;5052585;28;20033;-69
2022/12/07 09:11:04;;;;;;;14.48;6.10;;;;;;;3.35;100.00;101696.94;5051680;28;20430;-70
2022/12/07 09:13:29;;;;;;;15.88;6.47;;;;;;;3.44;100.00;101693.53;5052923;28;20029;-69
2022/12/07 09:15:55;;;;;;;13.30;5.22;;;;;;;3.49;100.00;101691.34;5053186;28;20021;-68
2022/12/07 09:18:21;;;;;;;13.73;5.68;;;;;;;3.55;100.00;101687.34;5052994;28;20388;-70
2022/12/07 09:20:46;;;;;;;12.57;6.32;;;;;;;3.55;100.00;101687.34;5052843;28;20527;-70
2022/12/07 09:23:11;;;;;;;14.05;5.78;;;;;;;3.56;100.00;101692.47;5052344;28;20037;-71
2022/12/07 09:25:37;;;;;;;16.60;7.18;;;;;;;3.56;100.00;101695.09;5051713;28;20025;-69
2022/12/07 09:28:02;;;;;;;11.02;5.32;;;;;;;3.56;100.00;101697.75;5052918;28;20133;-69
2022/12/07 09:30:27;;;;;;;18.63;5.75;;;;;;;3.53;100.00;101691.91;5057466;28;20031;-72
2022/12/07 09:32:54;;;;;;;12.95;5.65;;;;;;;3.53;100.00;101695.38;5069103;28;20032;-72
2022/12/07 09:35:20;;;;;;;10.70;4.38;;;;;;;3.53;100.00;101703.28;5070517;28;20036;-68
2022/12/07 09:37:45;;;;;;;11.95;4.75;;;;;;;3.51;100.00;101699.94;5071838;28;20040;-68
2022/12/07 09:40:12;;;;;;;13.80;7.10;;;;;;;3.55;100.00;101704.00;5062287;28;20115;-68
2022/12/07 09:42:43;;;;;;;8.32;4.38;;;;;;;3.54;100.00;101694.44;5052643;28;20029;-68
2022/12/07 09:45:18;;;;;;;11.90;5.75;;;;;;;3.56;100.00;101696.91;5052643;28;20033;-67
2022/12/07 09:47:44;;;;;;;7.45;4.63;;;;;;;3.61;100.00;101697.38;5052548;28;20034;-67
2022/12/07 09:50:17;;;;;;;11.57;5.68;;;;;;;3.74;100.00;101692.72;5052296;28;20025;-67
2022/12/07 09:52:45;;;;;;;10.30;4.68;;;;;;;3.81;100.00;101685.97;5051548;28;20033;-67
2022/12/07 09:55:19;;;;;;;8.15;4.75;;;;;;;3.91;100.00;101680.72;5052360;28;20390;-67
2022/12/07 09:57:45;;;;;;;9.80;4.88;;;;;;;3.99;100.00;101685.34;5050869;28;20035;-66
2022/12/07 10:00:19;;;;;;;8.98;4.28;;;;;;;4.09;100.00;101688.84;5052225;28;20085;-66
2022/12/07 10:02:54;;;;;;;12.23;4.00;;;;;;;4.24;100.00;101684.03;5052289;28;20496;-66
2022/12/07 10:05:43;;;;;;;7.45;3.50;;;;;;;4.31;100.00;101675.44;5055089;28;20440;-66
2022/12/07 10:08:12;;;;;;;8.65;4.50;;;;;;;4.36;100.00;101694.34;5055377;28;20044;-68
2022/12/07 10:10:41;;;;;;;13.77;6.15;;;;;;;4.34;100.00;101682.25;5056461;28;20032;-66
2022/12/07 10:13:15;;;;;;;10.73;4.63;;;;;;;4.36;100.00;101678.50;5055809;28;20021;-66
2022/12/07 10:15:53;;;;;;;9.07;4.00;;;;;;;4.48;100.00;101683.66;5055321;28;20031;-66
2022/12/07 10:18:27;;;;;;;9.73;5.15;;;;;;;4.55;100.00;101679.50;5055593;28;20017;-66
2022/12/07 10:21:07;;;;;;;10.75;4.82;;;;;;;4.62;100.00;101678.00;5055752;28;20133;-65
2022/12/07 10:23:33;;;;;;;6.50;3.25;;;;;;;4.64;100.00;101676.06;5055880;28;20128;-65
2022/12/07 10:25:59;;;;;;;9.45;4.57;;;;;;;4.68;100.00;101672.16;5056408;28;20356;-66
2022/12/07 10:28:35;;;;;;;9.80;4.00;;;;;;;4.74;100.00;101671.63;5055770;28;20029;-66
2022/12/07 10:31:15;;;;;;;8.75;3.85;;;;;;;4.84;100.00;101663.66;5056472;28;20029;-67
2022/12/07 10:33:51;;;;;;;9.50;4.10;;;;;;;5.10;100.00;101661.31;5054755;28;20033;-66
2022/12/07 10:36:27;;;;;;;8.00;2.90;;;;;;;5.31;100.00;101661.13;5055966;28;20056;-65
2022/12/07 10:39:00;;;;;;;9.38;3.95;;;;;;;5.47;100.00;101650.78;5069164;28;20076;-65
2022/12/07 10:41:25;;;;;;;5.60;3.92;;;;;;;5.67;100.00;101646.28;5070290;28;20121;-66
2022/12/07 10:43:54;;;;;;;10.23;3.30;;;;;;;5.88;100.00;101656.63;5070472;28;20033;-65
2022/12/07 10:46:26;;;;;;;8.68;4.15;;;;;;;6.00;100.00;101649.38;5070284;28;20075;-65
2022/12/07 10:48:54;;;;;;;9.43;4.53;;;;;;;6.11;100.00;101646.53;5070400;28;20040;-65
2022/12/07 10:52:04;;;;;;;13.23;3.97;;;;;;;6.13;100.00;101652.53;5070537;28;20925;-65
2022/12/07 10:55:01;;;;;;;8.90;4.28;;;;;;;6.04;100.00;101652.56;5053963;28;20403;-67
2022/12/07 10:57:41;;;;;;;6.68;2.45;;;;;;;5.94;100.00;101647.31;5070386;28;20029;-67
2022/12/07 11:00:23;;;;;;;7.90;3.17;;;;;;;5.87;100.00;101638.28;5070320;28;20059;-65
2022/12/07 11:03:15;;;;;;;6.18;3.63;;;;;;;5.88;100.00;101635.47;5068435;28;20032;-65
2022/12/07 11:05:43;;;;;;;;;;;;;;;5.95;100.00;101634.91;5070182;28;20198;-65
2022/12/07 11:08:32;;;;;;;6.63;2.53;;;;;;;5.91;100.00;101644.94;5069650;28;19919;-65
2022/12/07 11:11:04;;;;;;;8.52;3.63;;;;;;;5.88;100.00;101630.16;5069386;28;20487;-65
2022/12/07 11:13:49;;;;;;;9.75;3.67;;;;;;;5.91;100.00;101631.69;5061042;28;20054;-65
2022/12/07 11:16:34;;;;;;;8.13;3.63;;;;;;;5.94;100.00;101620.84;5043182;28;20056;-67
2022/12/07 11:19:28;;;;;;;9.15;3.63;;;;;;;5.89;100.00;101618.63;5050895;28;20412;-65
2022/12/07 11:21:56;;;;;;;7.32;3.20;;;;;;;5.84;100.00;101630.59;5049385;28;20411;-65
2022/12/07 11:24:32;;;;;;;4.72;2.63;;;;;;;5.84;100.00;101622.66;5050658;28;20238;-65
2022/12/07 11:27:37;;;;;;;6.28;2.95;;;;;;;5.83;100.00;101616.53;5050632;28;20031;-65
2022/12/07 11:30:22;;;;;;;6.32;3.20;;;;;;;5.80;100.00;101616.00;5015600;28;20036;-65
2022/12/07 11:33:16;;;;;;;8.05;3.42;;;;;;;5.77;100.00;101609.19;5050457;28;20082;-65
2022/12/07 11:36:16;;;;;;;8.07;3.47;;;;;;;5.77;100.00;101611.84;5036554;28;20484;-65
2022/12/07 11:38:52;;;;;;;7.55;3.92;;;;;;;5.71;100.00;101604.47;5050256;28;20079;-67